createdAt,value
2022-09-26T00:01:33.832Z,100663.28
2022-09-26T00:04:05.105Z,100664.88
2022-09-26T00:06:32.447Z,100657.75
2022-09-26T00:09:00.938Z,100660.47
2022-09-26T00:11:32.546Z,100671.13
2022-09-26T00:14:08.091Z,100659.47
2022-09-26T00:16:41.424Z,100668.56
2022-09-26T00:19:09.345Z,100664.03
2022-09-26T00:21:37.397Z,100656.78
2022-09-26T00:24:05.336Z,100658.63
2022-09-26T00:26:34.118Z,100657.88
2022-09-26T00:29:04.848Z,100652.47
2022-09-26T00:31:34.223Z,100651.91
2022-09-26T00:34:02.399Z,100640.22
2022-09-26T00:36:38.018Z,100639.38
2022-09-26T00:39:10.757Z,100645.16
2022-09-26T00:41:39.058Z,100639.03
2022-09-26T00:44:40.365Z,100631.03
2022-09-26T00:47:23.659Z,100626.66
2022-09-26T00:49:55.522Z,100620.53
2022-09-26T00:52:32.732Z,100626.78
2022-09-26T00:55:02.225Z,100622.63
2022-09-26T00:57:34.859Z,100616.47
2022-09-26T01:00:07.317Z,100621.78
2022-09-26T01:02:34.898Z,100609.25
2022-09-26T01:05:04.054Z,100612.94
2022-09-26T01:07:31.716Z,100613.06
2022-09-26T01:10:05.866Z,100608.38
2022-09-26T01:12:36.731Z,100608.28
2022-09-26T01:15:06.430Z,100603.84
2022-09-26T01:17:34.018Z,100597.34
2022-09-26T01:20:39.855Z,100589.25
2022-09-26T01:23:13.520Z,100583.59
2022-09-26T01:25:55.895Z,100597.72
2022-09-26T01:28:42.746Z,100601.13
2022-09-26T01:31:11.996Z,100594.47
2022-09-26T01:33:45.735Z,100597.78
2022-09-26T01:36:41.806Z,100591.28
2022-09-26T01:39:42.469Z,100592.84
2022-09-26T01:42:37.888Z,100595.44
2022-09-26T01:45:19.238Z,100586.34
2022-09-26T01:47:54.613Z,100593.31
2022-09-26T01:50:34.926Z,100586.66
2022-09-26T01:53:10.266Z,100582.00
2022-09-26T01:55:52.046Z,100582.72
2022-09-26T01:58:28.162Z,100577.22
2022-09-26T02:00:58.497Z,100572.53
2022-09-26T02:03:28.897Z,100574.25
2022-09-26T02:06:01.686Z,100573.88
2022-09-26T02:08:38.081Z,100573.75
2022-09-26T02:11:12.849Z,100581.59
2022-09-26T02:13:55.725Z,100563.56
2022-09-26T02:16:30.523Z,100576.19
2022-09-26T02:19:04.322Z,100570.50
2022-09-26T02:21:38.685Z,100564.25
2022-09-26T02:24:07.015Z,100572.97
2022-09-26T02:26:34.327Z,100571.25
2022-09-26T02:29:03.578Z,100579.94
2022-09-26T02:31:35.605Z,100589.75
2022-09-26T02:34:04.084Z,100586.06
2022-09-26T02:36:34.644Z,100585.91
2022-09-26T02:39:04.796Z,100583.38
2022-09-26T02:41:35.073Z,100581.50
2022-09-26T02:44:24.162Z,100579.81
2022-09-26T02:47:27.378Z,100571.84
2022-09-26T02:50:14.273Z,100570.13
2022-09-26T02:53:00.667Z,100579.06
2022-09-26T02:55:35.838Z,100576.38
2022-09-26T02:58:24.133Z,100575.50
2022-09-26T03:01:22.500Z,100572.97
2022-09-26T03:04:14.864Z,100576.06
2022-09-26T03:06:45.094Z,100573.50
2022-09-26T03:09:13.300Z,100568.09
2022-09-26T03:11:41.899Z,100553.00
2022-09-26T03:14:09.382Z,100559.41
2022-09-26T03:16:39.185Z,100554.97
2022-09-26T03:19:11.090Z,100566.91
2022-09-26T03:21:38.496Z,100558.16
2022-09-26T03:24:05.983Z,100561.41
2022-09-26T03:26:33.405Z,100555.66
2022-09-26T03:29:00.665Z,100559.59
2022-09-26T03:31:31.502Z,100550.78
2022-09-26T03:33:59.662Z,100543.81
2022-09-26T03:36:28.245Z,100546.03
2022-09-26T03:38:55.495Z,100546.91
2022-09-26T03:41:23.080Z,100549.59
2022-09-26T03:43:50.312Z,100551.16
2022-09-26T03:46:18.258Z,100548.22
2022-09-26T03:48:45.630Z,100538.25
2022-09-26T03:51:13.996Z,100549.66
2022-09-26T03:53:45.531Z,100561.91
2022-09-26T03:56:16.313Z,100551.72
2022-09-26T03:58:44.342Z,100548.03
2022-09-26T04:01:14.002Z,100545.22
2022-09-26T04:03:47.746Z,100557.81
2022-09-26T04:06:20.099Z,100549.72
2022-09-26T04:08:50.992Z,100548.03
2022-09-26T04:11:21.835Z,100552.72
2022-09-26T04:13:52.545Z,100551.84
2022-09-26T04:16:23.879Z,100551.25
2022-09-26T04:18:56.856Z,100549.41
2022-09-26T04:21:25.397Z,100557.66
2022-09-26T04:23:56.076Z,100563.91
2022-09-26T04:26:24.481Z,100570.00
2022-09-26T04:28:55.533Z,100567.91
2022-09-26T04:31:24.508Z,100564.22
2022-09-26T04:33:51.895Z,100563.81
2022-09-26T04:36:19.144Z,100567.97
2022-09-26T04:38:47.070Z,100562.09
2022-09-26T04:41:19.544Z,100547.34
2022-09-26T04:43:47.297Z,100563.84
2022-09-26T04:46:20.809Z,100557.94
2022-09-26T04:48:51.142Z,100557.41
2022-09-26T04:51:19.645Z,100553.31
2022-09-26T04:53:48.520Z,100554.09
2022-09-26T04:56:16.648Z,100554.72
2022-09-26T04:58:44.615Z,100550.66
2022-09-26T05:01:14.329Z,100548.56
2022-09-26T05:03:42.898Z,100541.22
2022-09-26T05:06:10.979Z,100543.66
2022-09-26T05:08:41.271Z,100543.84
2022-09-26T05:11:09.403Z,100539.63
2022-09-26T05:13:37.963Z,100545.19
2022-09-26T05:16:11.134Z,100539.34
2022-09-26T05:18:39.589Z,100539.66
2022-09-26T05:21:07.693Z,100542.94
2022-09-26T05:23:55.480Z,100545.47
2022-09-26T05:26:24.760Z,100545.44
2022-09-26T05:28:54.777Z,100550.25
2022-09-26T05:31:25.386Z,100540.28
2022-09-26T05:33:53.068Z,100545.78
2022-09-26T05:36:20.372Z,100547.34
2022-09-26T05:38:47.901Z,100543.22
2022-09-26T05:41:15.250Z,100550.22
2022-09-26T05:43:42.618Z,100548.53
2022-09-26T05:46:11.976Z,100549.94
2022-09-26T05:48:40.137Z,100555.03
2022-09-26T05:51:13.527Z,100549.50
2022-09-26T05:53:46.531Z,100562.63
2022-09-26T05:56:19.723Z,100550.19
2022-09-26T05:58:48.238Z,100552.34
2022-09-26T06:01:17.970Z,100555.41
2022-09-26T06:03:46.631Z,100546.09
2022-09-26T06:06:15.926Z,100552.72
2022-09-26T06:08:54.087Z,100550.72
2022-09-26T06:11:33.328Z,100552.09
2022-09-26T06:14:02.820Z,100548.03
2022-09-26T06:16:33.000Z,100546.78
2022-09-26T06:19:02.607Z,100545.06
2022-09-26T06:21:30.045Z,100539.31
2022-09-26T06:23:57.917Z,100532.19
2022-09-26T06:26:27.051Z,100538.53
2022-09-26T06:29:00.344Z,100541.31
2022-09-26T06:31:28.628Z,100542.84
2022-09-26T06:33:56.315Z,100545.91
2022-09-26T06:36:24.733Z,100548.28
2022-09-26T06:38:56.075Z,100558.34
2022-09-26T06:41:23.444Z,100551.69
2022-09-26T06:43:51.040Z,100555.63
2022-09-26T06:46:18.488Z,100553.38
2022-09-26T06:48:46.683Z,100556.56
2022-09-26T06:51:14.389Z,100563.53
2022-09-26T06:53:46.055Z,100560.09
2022-09-26T06:56:17.646Z,100563.97
2022-09-26T06:58:45.464Z,100562.78
2022-09-26T07:01:14.565Z,100569.81
2022-09-26T07:03:45.686Z,100571.44
2022-09-26T07:06:14.409Z,100572.16
2022-09-26T07:09:01.651Z,100574.34
2022-09-26T07:11:50.875Z,100565.84
2022-09-26T07:14:19.204Z,100572.47
2022-09-26T07:16:49.747Z,100571.63
2022-09-26T07:19:18.654Z,100568.75
2022-09-26T07:21:47.526Z,100578.22
2022-09-26T07:24:14.888Z,100585.38
2022-09-26T07:26:42.399Z,100581.44
2022-09-26T07:29:10.448Z,100575.81
2022-09-26T07:31:38.254Z,100570.50
2022-09-26T07:34:06.202Z,100572.56
2022-09-26T07:36:33.536Z,100569.09
2022-09-26T07:39:01.361Z,100568.72
2022-09-26T07:41:31.269Z,100576.13
2022-09-26T07:45:01.887Z,100563.97
2022-09-26T07:47:12.521Z,100568.84
2022-09-26T07:50:01.940Z,100563.25
2022-09-26T07:52:30.804Z,100565.81
2022-09-26T07:54:58.644Z,100565.06
2022-09-26T07:57:26.137Z,100565.06
2022-09-26T07:59:54.283Z,100563.00
2022-09-26T08:02:28.056Z,100554.81
2022-09-26T08:05:00.250Z,100549.34
2022-09-26T08:07:28.391Z,100569.13
2022-09-26T08:09:56.895Z,100558.94
2022-09-26T08:12:24.337Z,100554.69
2022-09-26T08:14:53.053Z,100551.28
2022-09-26T08:17:21.000Z,100544.25
2022-09-26T08:19:48.639Z,100541.16
2022-09-26T08:22:15.887Z,100549.84
2022-09-26T08:24:45.236Z,100546.06
2022-09-26T08:27:13.288Z,100542.34
2022-09-26T08:29:40.536Z,100534.16
2022-09-26T08:32:08.527Z,100524.13
2022-09-26T08:34:36.577Z,100533.63
2022-09-26T08:37:04.083Z,100533.34
2022-09-26T08:39:33.579Z,100534.75
2022-09-26T08:42:24.050Z,100522.53
2022-09-26T08:45:35.582Z,100525.47
2022-09-26T08:48:15.473Z,100512.09
2022-09-26T08:50:54.278Z,100512.81
2022-09-26T08:53:28.197Z,100505.91
2022-09-26T08:55:57.336Z,100508.19
2022-09-26T08:58:42.292Z,100514.44
2022-09-26T09:01:15.824Z,100504.06
2022-09-26T09:03:54.809Z,100499.16
2022-09-26T09:06:24.067Z,100512.53
2022-09-26T09:08:54.328Z,100507.81
2022-09-26T09:11:50.911Z,100510.84
2022-09-26T09:14:31.809Z,100511.53
2022-09-26T09:17:15.088Z,100497.91
2022-09-26T09:20:21.788Z,100514.91
2022-09-26T09:23:14.005Z,100509.50
2022-09-26T09:25:49.810Z,100504.34
2022-09-26T09:28:26.188Z,100507.53
2022-09-26T09:31:02.250Z,100499.44
2022-09-26T09:33:52.879Z,100504.16
2022-09-26T09:36:53.515Z,100499.81
2022-09-26T09:39:29.811Z,100509.72
2022-09-26T09:42:39.093Z,100505.75
2022-09-26T09:45:17.158Z,100492.91
2022-09-26T09:47:46.163Z,100488.13
2022-09-26T09:51:02.858Z,100482.78
2022-09-26T09:54:10.760Z,100474.44
2022-09-26T09:56:47.493Z,100479.97
2022-09-26T09:59:39.777Z,100468.03
2022-09-26T10:02:38.184Z,100480.88
2022-09-26T10:05:45.269Z,100474.00
2022-09-26T10:08:18.287Z,100464.34
2022-09-26T10:11:24.228Z,100469.44
2022-09-26T10:13:56.723Z,100471.97
2022-09-26T10:16:26.224Z,100469.22
2022-09-26T10:19:06.930Z,100473.53
2022-09-26T10:21:39.541Z,100454.44
2022-09-26T10:24:34.394Z,100450.09
2022-09-26T10:27:28.095Z,100442.97
2022-09-26T10:29:57.392Z,100446.13
2022-09-26T10:32:25.411Z,100447.94
2022-09-26T10:35:17.441Z,100449.16
2022-09-26T10:37:50.419Z,100433.69
2022-09-26T10:40:47.746Z,100426.72
2022-09-26T10:43:33.112Z,100435.19
2022-09-26T10:46:09.171Z,100426.75
2022-09-26T10:48:39.098Z,100435.50
2022-09-26T10:51:07.594Z,100430.25
2022-09-26T10:53:37.945Z,100427.38
2022-09-26T10:56:08.766Z,100435.88
2022-09-26T10:58:40.733Z,100430.97
2022-09-26T11:01:19.216Z,100426.72
2022-09-26T11:03:48.840Z,100434.78
2022-09-26T11:06:34.079Z,100414.56
2022-09-26T11:09:03.820Z,100406.56
2022-09-26T11:11:34.045Z,100405.97
2022-09-26T11:14:03.951Z,100411.84
2022-09-26T11:16:51.931Z,100408.44
2022-09-26T11:19:53.845Z,100413.03
2022-09-26T11:22:32.510Z,100407.28
2022-09-26T11:25:15.707Z,100402.88
2022-09-26T11:27:53.864Z,100389.66
2022-09-26T11:30:22.546Z,100394.78
2022-09-26T11:32:52.332Z,100400.97
2022-09-26T11:35:33.392Z,100397.56
2022-09-26T11:38:20.566Z,100392.44
2022-09-26T11:40:57.117Z,100389.84
2022-09-26T11:43:51.760Z,100390.00
2022-09-26T11:46:39.218Z,100380.06
2022-09-26T11:49:19.646Z,100381.56
2022-09-26T11:52:05.506Z,100380.88
2022-09-26T11:55:11.769Z,100371.88
2022-09-26T11:57:42.497Z,100371.53
2022-09-26T12:00:16.118Z,100378.41
2022-09-26T12:03:11.667Z,100380.91
2022-09-26T12:05:53.513Z,100375.72
2022-09-26T12:08:31.302Z,100374.94
2022-09-26T12:11:15.992Z,100381.97
2022-09-26T12:14:04.943Z,100371.03
2022-09-26T12:16:51.935Z,100357.09
2022-09-26T12:19:57.899Z,100362.81
2022-09-26T12:22:40.494Z,100376.88
2022-09-26T12:25:26.317Z,100377.53
2022-09-26T12:28:00.168Z,100372.72
2022-09-26T12:30:35.583Z,100381.03
2022-09-26T12:33:23.273Z,100367.34
2022-09-26T12:36:09.067Z,100381.72
2022-09-26T12:38:59.453Z,100378.28
2022-09-26T12:41:52.009Z,100369.16
2022-09-26T12:44:31.279Z,100375.91
2022-09-26T12:47:11.482Z,100362.34
2022-09-26T12:49:50.937Z,100366.16
2022-09-26T12:52:47.160Z,100358.94
2022-09-26T12:55:32.329Z,100359.03
2022-09-26T12:58:21.971Z,100360.75
2022-09-26T13:01:25.714Z,100355.66
2022-09-26T13:30:35.826Z,100351.66
2022-09-26T13:33:23.345Z,100345.84
2022-09-26T13:35:52.738Z,100338.81
2022-09-26T13:38:41.162Z,100341.09
2022-09-26T13:41:26.120Z,100331.09
2022-09-26T13:44:17.581Z,100332.84
2022-09-26T13:46:59.425Z,100330.91
2022-09-26T13:49:36.817Z,100334.63
2022-09-26T13:52:22.151Z,100337.50
2022-09-26T13:55:04.586Z,100339.16
2022-09-26T13:57:35.786Z,100346.91
2022-09-26T14:00:31.675Z,100345.22
2022-09-26T14:03:15.518Z,100340.84
2022-09-26T14:05:46.475Z,100335.81
2022-09-26T14:08:52.997Z,100329.16
2022-09-26T14:11:30.712Z,100331.69
2022-09-26T14:14:19.443Z,100335.31
2022-09-26T14:16:54.140Z,100325.38
2022-09-26T14:19:42.606Z,100326.34
2022-09-26T14:22:19.170Z,100319.31
2022-09-26T14:24:49.740Z,100323.47
2022-09-26T14:27:36.398Z,100320.88
2022-09-26T14:30:12.970Z,100319.94
2022-09-26T14:32:45.585Z,100308.44
2022-09-26T14:35:27.955Z,100312.94
2022-09-26T14:38:04.688Z,100312.78
2022-09-26T14:40:35.500Z,100313.28
2022-09-26T14:43:40.313Z,100320.97
2022-09-26T14:46:17.073Z,100325.28
2022-09-26T14:48:44.846Z,100328.47
2022-09-26T14:51:16.075Z,100319.91
2022-09-26T14:53:54.730Z,100325.66
2022-09-26T14:56:29.410Z,100337.72
2022-09-26T14:59:24.609Z,100346.84
2022-09-26T15:01:53.199Z,100334.09
2022-09-26T15:04:27.466Z,100346.63
2022-09-26T15:07:02.219Z,100336.44
2022-09-26T15:09:29.529Z,100334.63
2022-09-26T15:12:04.253Z,100326.28
2022-09-26T15:14:37.971Z,100319.88
2022-09-26T15:17:06.099Z,100317.03
2022-09-26T15:19:41.949Z,100309.75
2022-09-26T15:22:18.903Z,100308.47
2022-09-26T15:24:46.539Z,100303.47
2022-09-26T15:27:27.246Z,100311.56
2022-09-26T15:30:04.140Z,100333.31
2022-09-26T15:32:33.710Z,100341.00
2022-09-26T15:35:02.625Z,100337.63
2022-09-26T15:37:32.833Z,100338.88
2022-09-26T15:40:15.855Z,100332.78
2022-09-26T15:42:58.708Z,100315.25
2022-09-26T15:45:37.939Z,100297.06
2022-09-26T15:48:20.538Z,100306.09
2022-09-26T15:50:53.984Z,100328.81
2022-09-26T15:53:28.912Z,100329.47
2022-09-26T15:56:03.764Z,100331.88
2022-09-26T15:58:40.309Z,100329.00
2022-09-26T16:01:08.740Z,100334.81
2022-09-26T16:03:45.477Z,100330.88
2022-09-26T16:07:04.402Z,100324.94
2022-09-26T16:09:43.383Z,100325.78
2022-09-26T16:12:17.005Z,100340.06
2022-09-26T16:15:03.008Z,100336.31
2022-09-26T16:17:49.053Z,100328.00
2022-09-26T16:20:16.823Z,100318.97
2022-09-26T16:22:53.882Z,100332.25
2022-09-26T16:25:25.442Z,100326.44
2022-09-26T16:28:10.208Z,100331.56
2022-09-26T16:30:42.969Z,100321.69
2022-09-26T16:33:30.485Z,100327.47
2022-09-26T16:36:15.258Z,100316.75
2022-09-26T16:38:42.769Z,100322.88
2022-09-26T16:42:01.700Z,100317.75
2022-09-26T16:44:35.324Z,100310.56
2022-09-26T16:47:06.309Z,100315.78
2022-09-26T16:49:46.383Z,100313.91
2022-09-26T16:52:31.511Z,100317.28
2022-09-26T16:55:09.050Z,100303.66
2022-09-26T16:57:48.322Z,100319.75
2022-09-26T17:00:37.357Z,100321.28
2022-09-26T17:03:21.319Z,100314.66
2022-09-26T17:05:51.277Z,100311.53
2022-09-26T17:08:22.128Z,100313.75
2022-09-26T17:10:49.406Z,100321.38
2022-09-26T17:13:22.978Z,100317.41
2022-09-26T17:15:53.047Z,100315.19
2022-09-26T17:18:23.144Z,100310.25
2022-09-26T17:20:52.880Z,100300.72
2022-09-26T17:23:39.287Z,100304.09
2022-09-26T17:26:07.806Z,100302.00
2022-09-26T17:28:42.543Z,100296.22
2022-09-26T17:31:14.679Z,100291.25
2022-09-26T17:33:43.073Z,100290.69
2022-09-26T17:36:20.392Z,100287.31
2022-09-26T17:38:47.899Z,100294.75
2022-09-26T17:41:15.688Z,100299.50
2022-09-26T17:43:47.169Z,100294.56
2022-09-26T17:46:16.306Z,100298.97
2022-09-26T17:48:44.408Z,100293.69
2022-09-26T17:51:14.531Z,100292.16
2022-09-26T17:53:50.093Z,100285.16
2022-09-26T17:56:19.454Z,100281.78
2022-09-26T17:58:47.294Z,100286.50
2022-09-26T18:01:25.007Z,100278.69
2022-09-26T18:03:59.401Z,100283.25
2022-09-26T18:06:31.782Z,100278.16
2022-09-26T18:09:05.328Z,100281.72
2022-09-26T18:11:34.497Z,100273.75
2022-09-26T18:14:03.753Z,100278.16
2022-09-26T18:16:31.075Z,100273.56
2022-09-26T18:19:02.068Z,100265.97
2022-09-26T18:21:36.259Z,100275.63
2022-09-26T18:24:11.001Z,100274.31
2022-09-26T18:26:47.079Z,100275.00
2022-09-26T18:29:17.690Z,100278.41
2022-09-26T18:31:46.003Z,100280.28
2022-09-26T18:34:16.668Z,100272.97
2022-09-26T18:36:44.595Z,100274.00
2022-09-26T18:39:12.766Z,100269.41
2022-09-26T18:41:40.461Z,100282.84
2022-09-26T18:44:16.664Z,100276.53
2022-09-26T18:46:48.267Z,100268.25
2022-09-26T18:49:18.451Z,100263.50
2022-09-26T18:51:46.920Z,100269.63
2022-09-26T18:54:16.510Z,100277.47
2022-09-26T18:57:02.973Z,100274.41
2022-09-26T18:59:32.662Z,100262.22
2022-09-26T19:02:02.644Z,100265.50
2022-09-26T19:04:30.762Z,100254.47
2022-09-26T19:07:02.361Z,100266.03
2022-09-26T19:09:34.471Z,100271.47
2022-09-26T19:12:03.530Z,100265.50
2022-09-26T19:14:32.106Z,100264.09
2022-09-26T19:17:03.764Z,100246.59
2022-09-26T19:19:32.607Z,100246.22
2022-09-26T19:22:02.093Z,100241.25
2022-09-26T19:24:40.697Z,100242.94
2022-09-26T19:27:15.234Z,100237.28
2022-09-26T19:29:58.013Z,100225.03
2022-09-26T19:32:34.276Z,100219.06
2022-09-26T19:35:19.833Z,100225.53
2022-09-26T19:37:47.796Z,100225.69
2022-09-26T19:40:16.760Z,100215.16
2022-09-26T19:42:44.122Z,100225.16
2022-09-26T19:45:13.129Z,100232.59
2022-09-26T19:47:47.190Z,100238.19
2022-09-26T19:50:18.692Z,100237.16
2022-09-26T19:52:47.547Z,100249.88
2022-09-26T19:55:27.131Z,100235.47
2022-09-26T19:58:12.361Z,100233.66
2022-09-26T20:00:45.321Z,100222.97
2022-09-26T20:03:16.255Z,100225.34
2022-09-26T20:05:50.032Z,100224.50
2022-09-26T20:08:24.170Z,100233.34
2022-09-26T20:10:54.900Z,100242.16
2022-09-26T20:13:24.838Z,100244.25
2022-09-26T20:15:55.168Z,100236.78
2022-09-26T20:18:26.430Z,100236.19
2022-09-26T20:20:59.319Z,100231.44
2022-09-26T20:23:28.280Z,100236.53
2022-09-26T20:25:58.037Z,100237.94
2022-09-26T20:28:27.033Z,100250.31
2022-09-26T20:30:57.352Z,100245.72
2022-09-26T20:33:29.244Z,100250.84
2022-09-26T20:36:04.414Z,100243.25
2022-09-26T20:38:41.555Z,100240.91
2022-09-26T20:41:34.982Z,100230.56
2022-09-26T20:44:13.589Z,100232.66
2022-09-26T20:46:54.997Z,100216.88
2022-09-26T20:49:30.974Z,100211.44
2022-09-26T20:52:00.174Z,100216.88
2022-09-26T20:54:30.277Z,100214.88
2022-09-26T20:56:58.793Z,100203.16
2022-09-26T20:59:28.897Z,100205.88
2022-09-26T21:01:57.352Z,100206.72
2022-09-26T21:04:33.318Z,100213.00
2022-09-26T21:07:00.556Z,100202.31
2022-09-26T21:09:27.851Z,100218.59
2022-09-26T21:11:55.276Z,100223.19
2022-09-26T21:14:22.593Z,100223.00
2022-09-26T21:16:51.835Z,100215.53
2022-09-26T21:19:21.934Z,100216.25
2022-09-26T21:21:50.449Z,100218.13
2022-09-26T21:24:30.085Z,100219.81
2022-09-26T21:26:57.858Z,100218.69
2022-09-26T21:29:25.141Z,100205.78
2022-09-26T21:31:53.640Z,100203.91
2022-09-26T21:34:23.380Z,100196.78
2022-09-26T21:36:54.406Z,100193.75
2022-09-26T21:39:22.390Z,100191.88
2022-09-26T21:41:51.787Z,100193.75
2022-09-26T21:44:23.931Z,100191.88
2022-09-26T21:46:51.606Z,100187.47
2022-09-26T21:49:19.186Z,100188.31
2022-09-26T21:51:48.634Z,100179.34
2022-09-26T21:54:22.519Z,100173.91
2022-09-26T21:56:53.910Z,100173.91
2022-09-26T21:59:22.830Z,100167.44
2022-09-26T22:01:50.263Z,100158.59
2022-09-26T22:04:19.098Z,100151.47
2022-09-26T22:06:46.530Z,100147.91
2022-09-26T22:09:14.105Z,100149.06
2022-09-26T22:11:42.133Z,100140.25
2022-09-26T22:14:09.526Z,100146.84
2022-09-26T22:16:37.125Z,100152.44
2022-09-26T22:19:06.954Z,100151.91
2022-09-26T22:21:35.443Z,100148.66
2022-09-26T22:24:03.033Z,100148.53
2022-09-26T22:26:30.356Z,100141.38
2022-09-26T22:28:57.582Z,100143.22
2022-09-26T22:31:24.936Z,100145.94
2022-09-26T22:33:58.933Z,100150.34
2022-09-26T22:36:26.707Z,100149.38
2022-09-26T22:38:54.959Z,100132.06
2022-09-26T22:41:22.315Z,100130.19
2022-09-26T22:43:49.630Z,100119.50
2022-09-26T22:46:17.111Z,100123.06
2022-09-26T22:48:46.510Z,100124.09
2022-09-26T22:51:15.106Z,100124.25
2022-09-26T22:53:43.885Z,100119.66
2022-09-26T22:56:13.292Z,100126.81
2022-09-26T22:58:51.222Z,100123.91
2022-09-26T23:01:23.272Z,100118.66
2022-09-26T23:03:53.083Z,100111.19
2022-09-26T23:06:21.938Z,100114.75
2022-09-26T23:08:50.070Z,100114.63
2022-09-26T23:11:18.407Z,100102.88
2022-09-26T23:13:47.481Z,100111.72
2022-09-26T23:16:21.734Z,100101.88
2022-09-26T23:18:50.894Z,100092.03
2022-09-26T23:21:27.892Z,100096.09
2022-09-26T23:23:56.362Z,100092.53
2022-09-26T23:26:26.838Z,100088.66
2022-09-26T23:28:55.529Z,100088.66
2022-09-26T23:31:23.781Z,100090.34
2022-09-26T23:33:52.734Z,100084.25
2022-09-26T23:36:21.417Z,100075.25
2022-09-26T23:38:49.982Z,100063.03
2022-09-26T23:41:18.023Z,100060.78
2022-09-26T23:43:46.453Z,100056.72
2022-09-26T23:46:14.528Z,100060.94
2022-09-26T23:48:46.218Z,100062.13
2022-09-26T23:51:16.531Z,100063.13
2022-09-26T23:53:44.298Z,100061.44
2022-09-26T23:56:13.594Z,100055.69
2022-09-26T23:58:42.131Z,100063.47
